Impacts TAF Board INFO
FOR SITUATIONAL AWARENESS. NOT TO BE USED FOR FLIGHT PLANNING PURPOSES.
IDs:

KSEA - Seattle-Tacoma Intl, WA, US

Issued at 0523 UTC 17 Dec 2017
Updated at 0555 UTC 17 Dec 2017
Potential Impact None Slight Moderate High
Time<<18/06Z 18/07Z 18/08Z 18/09Z 18/10Z 18/11Z 18/12Z 18/13Z 18/14Z 18/15Z 18/16Z 18/17Z 18/18Z
Type PRVL PRVL PRVL PRVL PRVL PRVL
VIS 5 5 5 5 5 5
CIG 20 20 20 20 20 20
Cover OVC OVC OVC OVC OVC OVC
FltCat MVFR MVFR MVFR MVFR MVFR MVFR
WX -RA -RA -RA -RA -RA -RA
WDir 190 190 190 190 190 190
WSpd 13 13 13 13 13 13
WGst 24 24 24 24 24 24

Raw TAF
KSEA 170523Z 1706/1812 18006KT P6SM -RA SCT015 OVC025
  FM171000 17008KT 5SM -RA BR SCT006 OVC015
  FM171800 19013G24KT 5SM -RA SCT008 OVC020


METAR Board
Radar Display
Forecast Discussion

FOR SITUATIONAL AWARENESS. NOT TO BE USED FOR FLIGHT PLANNING PURPOSES.